Time;durP1;ratioP1;P1;durP2;ratioP2;P2;SDS_P1;SDS_P2;PMS_P1;PMS_P2;Temp;Humidity;BMP_temperature;BMP_pressure;BME280_temperature;BME280_humidity;BME280_pressure;Samples;Min_cycle;Max_cycle;Signal;HPM_P1;HPM_P2
2024/01/24 00:01:54;;;;;;;14.93;3.22;;;;;;;9.22;76.01;101358.88;4095789;28;20074;-64
2024/01/24 00:03:57;;;;;;;16.38;3.30;;;;;;;9.17;76.38;101352.66;4098366;28;20050;-64
2024/01/24 00:06:01;;;;;;;12.52;3.08;;;;;;;9.22;76.34;101336.41;4098557;28;20410;-64
2024/01/24 00:08:05;;;;;;;10.88;3.53;;;;;;;9.25;76.50;101339.09;4099285;28;20031;-64
2024/01/24 00:10:09;;;;;;;11.70;3.40;;;;;;;9.30;76.03;101335.78;4096903;28;20031;-64
2024/01/24 00:12:13;;;;;;;12.93;3.28;;;;;;;9.28;75.71;101330.56;4097631;29;20042;-64
2024/01/24 00:14:16;;;;;;;11.50;3.03;;;;;;;9.34;76.02;101328.16;4098429;28;20086;-65
2024/01/24 00:16:19;;;;;;;14.27;4.00;;;;;;;9.31;76.01;101334.97;4094259;29;20039;-64
2024/01/24 00:18:22;;;;;;;13.77;3.67;;;;;;;9.33;75.92;101329.00;4097961;28;20106;-64
2024/01/24 00:20:25;;;;;;;12.20;2.92;;;;;;;9.34;75.95;101333.34;4098365;29;20039;-64
2024/01/24 00:22:29;;;;;;;15.20;3.58;;;;;;;9.32;75.80;101329.81;4096503;29;20053;-64
2024/01/24 00:24:32;;;;;;;14.50;3.58;;;;;;;9.34;75.44;101328.16;4090565;28;20125;-65
2024/01/24 00:26:37;;;;;;;20.25;4.53;;;;;;;9.46;75.61;101332.00;4090156;29;20085;-64
2024/01/24 00:28:40;;;;;;;14.38;2.85;;;;;;;9.40;75.93;101325.78;4096618;29;20059;-64
2024/01/24 00:30:43;;;;;;;11.02;2.42;;;;;;;9.43;75.92;101320.69;4097439;29;20063;-64
2024/01/24 00:32:46;;;;;;;12.38;3.63;;;;;;;9.40;75.96;101323.19;4098440;29;20063;-64
2024/01/24 00:34:49;;;;;;;12.00;2.58;;;;;;;9.41;75.67;101316.28;4097396;29;20062;-64
2024/01/24 00:36:52;;;;;;;11.60;2.92;;;;;;;9.40;75.75;101304.13;4097398;29;20486;-65
2024/01/24 00:38:56;;;;;;;12.93;2.47;;;;;;;9.38;75.87;101311.84;4098037;28;20530;-65
2024/01/24 00:40:59;;;;;;;12.20;2.47;;;;;;;9.38;76.16;101298.88;4098047;28;20123;-65
2024/01/24 00:43:02;;;;;;;11.68;2.95;;;;;;;9.43;76.15;101291.25;4098012;28;20031;-65
2024/01/24 00:45:06;;;;;;;7.28;2.30;;;;;;;9.51;76.08;101294.97;4097178;28;20039;-65
2024/01/24 00:47:08;;;;;;;10.77;2.58;;;;;;;9.48;76.46;101294.00;4093460;29;20039;-65
2024/01/24 00:49:12;;;;;;;9.52;3.15;;;;;;;9.53;75.94;101300.22;4097856;29;20035;-65
2024/01/24 00:51:15;;;;;;;12.38;2.78;;;;;;;9.58;75.32;101294.34;4093752;29;20035;-64
2024/01/24 00:53:21;;;;;;;13.70;3.03;;;;;;;9.72;75.52;101281.78;4098143;28;20557;-64
2024/01/24 00:55:26;;;;;;;10.20;2.40;;;;;;;9.66;74.79;101284.19;4098025;29;20035;-64
2024/01/24 00:57:29;;;;;;;11.65;2.67;;;;;;;9.63;75.77;101284.09;4096922;29;20039;-64
2024/01/24 00:59:32;;;;;;;10.35;2.35;;;;;;;9.69;75.79;101281.69;4097936;29;20035;-64
2024/01/24 01:01:34;;;;;;;12.00;3.00;;;;;;;9.69;75.57;101283.41;4095976;29;20485;-64
2024/01/24 01:03:38;;;;;;;7.55;2.22;;;;;;;9.68;75.01;101287.72;4095167;29;20050;-64
2024/01/24 01:05:41;;;;;;;14.85;3.28;;;;;;;9.75;74.90;101279.28;4097012;28;20039;-64
2024/01/24 01:07:43;;;;;;;13.38;2.85;;;;;;;9.78;75.44;101273.28;4097008;28;20035;-64
2024/01/24 01:09:46;;;;;;;8.25;2.30;;;;;;;9.69;75.74;101288.59;4095019;29;20054;-64
2024/01/24 01:11:50;;;;;;;13.18;2.80;;;;;;;9.75;75.63;101279.28;4096996;28;20135;-64
2024/01/24 01:13:53;;;;;;;9.85;2.40;;;;;;;9.74;74.92;101287.91;4098058;28;20131;-64
2024/01/24 01:15:55;;;;;;;10.55;2.40;;;;;;;9.79;74.81;101285.44;4096865;28;20050;-65
2024/01/24 01:17:58;;;;;;;7.93;2.58;;;;;;;9.74;75.89;101303.50;4097190;28;20129;-65
2024/01/24 01:20:01;;;;;;;7.20;2.15;;;;;;;9.65;75.88;101298.03;4098762;28;20058;-66
2024/01/24 01:22:05;;;;;;;8.30;2.65;;;;;;;9.74;75.24;101281.84;4097019;29;20054;-65
2024/01/24 01:24:09;;;;;;;10.60;2.90;;;;;;;9.87;75.12;101286.56;4097586;29;20063;-64
2024/01/24 01:26:12;;;;;;;8.90;2.33;;;;;;;9.82;75.36;101284.66;4092492;28;20039;-65
2024/01/24 01:28:15;;;;;;;10.05;2.28;;;;;;;9.87;75.51;101280.47;4103813;28;20127;-64
2024/01/24 01:30:18;;;;;;;11.32;2.72;;;;;;;9.86;75.73;101281.34;4105962;28;20104;-64
2024/01/24 01:32:21;;;;;;;11.77;2.33;;;;;;;9.86;75.56;101284.81;4096403;28;20041;-64
2024/01/24 01:34:24;;;;;;;5.63;2.38;;;;;;;9.75;75.99;101283.59;4097730;28;20424;-64
2024/01/24 01:36:27;;;;;;;7.35;2.17;;;;;;;9.73;75.63;101286.13;4098541;28;20046;-64
2024/01/24 01:38:30;;;;;;;10.85;2.42;;;;;;;9.70;75.91;101283.44;4099217;29;20067;-64
2024/01/24 01:40:33;;;;;;;8.80;2.22;;;;;;;9.81;75.71;101273.38;4101175;29;20043;-64
2024/01/24 01:42:37;;;;;;;11.77;3.00;;;;;;;9.94;75.28;101269.44;4100217;28;20056;-64
2024/01/24 01:44:46;;;;;;;9.10;2.80;;;;;;;9.86;75.75;101271.81;4092473;29;20078;-64
2024/01/24 01:46:51;;;;;;;10.88;3.13;;;;;;;9.89;75.87;101264.13;4100619;29;20031;-64
2024/01/24 01:48:58;;;;;;;10.63;2.58;;;;;;;9.88;75.19;101243.28;4098049;28;20062;-64
2024/01/24 01:51:02;;;;;;;8.68;2.30;;;;;;;9.95;75.31;101253.03;4100321;29;20035;-64
2024/01/24 01:53:08;;;;;;;8.23;2.50;;;;;;;9.89;76.07;101248.53;4099352;29;20066;-64
2024/01/24 01:55:14;;;;;;;10.35;2.90;;;;;;;9.90;75.40;101236.41;4100545;28;20110;-64
2024/01/24 01:57:17;;;;;;;10.02;2.00;;;;;;;10.05;75.79;101231.69;4099502;29;20405;-64
2024/01/24 01:59:20;;;;;;;7.70;2.08;;;;;;;9.98;75.89;101213.28;4111953;28;20038;-64
2024/01/24 02:01:25;;;;;;;7.07;2.10;;;;;;;9.98;76.04;101240.13;4097623;29;20046;-64
2024/01/24 02:03:29;;;;;;;9.73;2.17;;;;;;;9.93;75.51;101232.22;4097621;29;20134;-65
2024/01/24 02:05:32;;;;;;;12.07;2.65;;;;;;;9.92;75.54;101229.56;4098872;29;20568;-64
2024/01/24 02:07:39;;;;;;;7.70;2.15;;;;;;;9.90;76.26;101226.03;4092710;28;20524;-64
2024/01/24 02:09:42;;;;;;;6.28;2.00;;;;;;;9.92;76.46;101242.56;4098796;29;20041;-64
2024/01/24 02:11:45;;;;;;;9.93;2.35;;;;;;;9.95;75.99;101230.53;4100007;28;20333;-64
2024/01/24 02:13:48;;;;;;;9.40;1.83;;;;;;;10.00;75.95;101233.25;4099014;29;20066;-64
2024/01/24 02:15:50;;;;;;;8.57;2.88;;;;;;;9.98;76.63;101226.28;4099994;29;20041;-64
2024/01/24 02:17:54;;;;;;;7.88;1.60;;;;;;;10.12;76.91;101225.81;4099035;28;20077;-64
2024/01/24 02:19:56;;;;;;;8.93;1.98;;;;;;;10.22;75.81;101223.47;4098124;29;20047;-63
2024/01/24 02:21:59;;;;;;;11.25;2.33;;;;;;;10.17;76.57;101206.91;4099764;28;20490;-63
2024/01/24 02:24:02;;;;;;;7.30;1.88;;;;;;;10.20;76.55;101204.38;4098810;29;20047;-63
2024/01/24 02:26:07;;;;;;;6.63;1.90;;;;;;;10.25;77.02;101215.75;4100092;28;20041;-63
2024/01/24 02:28:10;;;;;;;5.40;1.75;;;;;;;10.29;76.98;101204.63;4099866;28;20073;-63
2024/01/24 02:30:14;;;;;;;7.10;1.60;;;;;;;10.42;76.66;101201.53;4098645;29;20071;-64
2024/01/24 02:32:16;;;;;;;6.53;2.58;;;;;;;10.49;76.28;101187.00;4099558;28;20043;-64
2024/01/24 02:34:19;;;;;;;7.40;3.40;;;;;;;10.63;76.06;101180.44;4098528;28;20043;-64
2024/01/24 02:36:21;;;;;;;9.98;3.28;;;;;;;10.64;76.28;101169.22;4098029;29;20035;-64
2024/01/24 02:38:24;;;;;;;8.80;3.08;;;;;;;10.72;75.17;101173.69;4101104;28;20042;-64
2024/01/24 02:40:28;;;;;;;10.10;3.47;;;;;;;10.80;74.71;101162.63;4099770;28;20516;-64
2024/01/24 02:42:32;;;;;;;10.55;4.35;;;;;;;10.87;75.35;101168.00;4099288;29;20042;-63
2024/01/24 02:44:35;;;;;;;7.60;3.92;;;;;;;10.95;74.46;101182.06;4098576;29;20045;-64
2024/01/24 02:46:38;;;;;;;9.82;4.15;;;;;;;10.97;74.29;101185.59;4098768;28;20057;-63
2024/01/24 02:48:40;;;;;;;10.05;4.63;;;;;;;11.00;74.51;101189.16;4094346;28;20452;-63
2024/01/24 02:50:44;;;;;;;9.95;3.65;;;;;;;10.99;74.29;101196.91;4100234;29;20070;-63
2024/01/24 02:52:47;;;;;;;11.57;4.38;;;;;;;11.02;74.76;101194.38;4095423;29;20446;-63
2024/01/24 02:54:50;;;;;;;9.48;3.08;;;;;;;11.11;74.54;101189.41;4098241;28;20533;-64
2024/01/24 02:56:52;;;;;;;11.48;4.90;;;;;;;11.13;74.83;101203.34;4098925;29;20103;-65
2024/01/24 02:58:56;;;;;;;9.75;3.70;;;;;;;11.11;74.84;101210.25;4099551;28;20043;-64
2024/01/24 03:00:59;;;;;;;9.35;3.40;;;;;;;11.07;74.63;101208.41;4099016;29;20028;-64
2024/01/24 03:03:01;;;;;;;9.55;2.67;;;;;;;11.14;74.61;101212.00;4098796;28;20054;-64
2024/01/24 03:05:05;;;;;;;6.57;2.20;;;;;;;11.16;74.86;101190.41;4100046;28;20062;-64
2024/01/24 03:07:09;;;;;;;6.07;2.40;;;;;;;11.18;74.57;101177.41;4098814;29;20042;-64
2024/01/24 03:09:13;;;;;;;8.02;2.10;;;;;;;11.20;74.55;101177.44;4099985;28;20040;-64
2024/01/24 03:11:15;;;;;;;8.43;2.37;;;;;;;11.20;74.30;101173.16;4099744;28;20043;-64
2024/01/24 03:13:18;;;;;;;7.47;2.55;;;;;;;11.19;74.72;101163.56;4096900;29;20465;-64
2024/01/24 03:15:23;;;;;;;7.35;2.78;;;;;;;11.23;74.27;101175.81;4094581;29;20039;-64
2024/01/24 03:17:26;;;;;;;8.50;2.78;;;;;;;11.24;74.86;101155.84;4099331;29;20399;-64
2024/01/24 03:19:28;;;;;;;6.00;1.88;;;;;;;11.35;74.38;101149.19;4098870;28;20039;-64
2024/01/24 03:21:32;;;;;;;7.22;2.83;;;;;;;11.32;74.76;101163.00;4099725;28;20547;-64
2024/01/24 03:23:38;;;;;;;8.63;2.85;;;;;;;11.39;74.07;101145.81;4099849;28;20041;-63
2024/01/24 03:25:40;;;;;;;6.00;1.55;;;;;;;11.38;74.23;101140.56;4098525;29;20035;-65
2024/01/24 03:27:43;;;;;;;7.47;1.83;;;;;;;11.43;73.92;101145.00;4099795;28;20414;-64
2024/01/24 03:29:46;;;;;;;9.32;1.70;;;;;;;11.39;74.08;101153.63;4099636;29;20039;-63
2024/01/24 03:31:50;;;;;;;8.50;1.70;;;;;;;11.43;74.73;101150.19;4098223;29;20051;-63
2024/01/24 03:33:54;;;;;;;3.50;1.00;;;;;;;11.48;74.57;101142.53;4099026;28;20035;-63
2024/01/24 03:35:57;;;;;;;9.30;1.83;;;;;;;11.49;74.08;101121.72;4098839;28;20043;-63
2024/01/24 03:37:59;;;;;;;5.70;1.33;;;;;;;11.56;74.47;101138.34;4097908;29;20040;-64
2024/01/24 03:40:03;;;;;;;7.78;2.17;;;;;;;11.58;74.11;101154.88;4099734;28;20409;-63
2024/01/24 03:42:06;;;;;;;3.43;1.13;;;;;;;11.63;73.83;101147.16;4101386;28;20129;-63
2024/01/24 03:44:09;;;;;;;4.15;1.40;;;;;;;11.63;73.96;101152.38;4102717;28;20047;-65
2024/01/24 03:46:13;;;;;;;5.23;2.00;;;;;;;11.59;74.53;101143.59;4098659;28;20126;-63
2024/01/24 03:48:16;;;;;;;3.30;1.35;;;;;;;11.62;74.51;101176.66;4098549;29;20058;-63
2024/01/24 03:50:20;;;;;;;3.30;1.42;;;;;;;11.60;74.49;101196.59;4096684;28;20143;-63
2024/01/24 03:52:23;;;;;;;3.42;1.20;;;;;;;11.65;74.56;101197.56;4097869;29;20039;-63
2024/01/24 03:54:25;;;;;;;4.75;1.70;;;;;;;11.72;74.29;101204.66;4098839;29;20074;-64
2024/01/24 03:56:28;;;;;;;4.30;1.35;;;;;;;11.69;74.59;101209.78;4098647;28;20126;-63
2024/01/24 03:58:31;;;;;;;4.28;1.67;;;;;;;11.72;74.41;101219.41;4095781;29;20043;-63
2024/01/24 04:00:34;;;;;;;4.72;1.35;;;;;;;11.71;74.36;101202.91;4096853;28;20405;-63
2024/01/24 04:02:37;;;;;;;4.07;1.42;;;;;;;11.72;74.36;101209.88;4098336;28;20493;-63
2024/01/24 04:04:41;;;;;;;6.10;2.47;;;;;;;11.68;75.12;101231.47;4095024;29;20039;-63
2024/01/24 04:06:44;;;;;;;7.88;4.38;;;;;;;11.71;74.60;101208.13;4096002;28;20050;-63
2024/01/24 04:08:47;;;;;;;7.20;4.00;;;;;;;11.75;74.39;101215.13;4096332;28;20050;-64
2024/01/24 04:10:50;;;;;;;4.65;3.03;;;;;;;11.74;74.77;101196.88;4097894;29;20128;-63
2024/01/24 04:12:53;;;;;;;7.47;2.40;;;;;;;11.73;74.75;101192.53;4096872;28;20130;-64
2024/01/24 04:14:56;;;;;;;5.57;2.28;;;;;;;11.72;75.31;101178.59;4099160;29;20478;-63
2024/01/24 04:16:58;;;;;;;4.22;1.35;;;;;;;11.70;75.18;101181.19;4098263;28;20405;-63
2024/01/24 04:19:01;;;;;;;5.85;1.77;;;;;;;11.66;75.08;101173.28;4094877;29;20066;-63
2024/01/24 04:21:06;;;;;;;4.63;1.30;;;;;;;11.70;75.25;101170.75;4097913;28;20050;-63
2024/01/24 04:23:09;;;;;;;6.80;1.38;;;;;;;11.71;75.61;101174.25;4099124;29;20035;-63
2024/01/24 04:25:12;;;;;;;6.65;1.58;;;;;;;11.68;75.24;101171.56;4097140;29;20493;-64
2024/01/24 04:27:15;;;;;;;2.95;1.00;;;;;;;11.69;75.43;101158.56;4098291;28;20054;-62
2024/01/24 04:29:18;;;;;;;4.05;1.65;;;;;;;11.73;75.39;101138.69;4095125;29;20051;-64
2024/01/24 04:31:21;;;;;;;3.92;1.02;;;;;;;11.72;75.39;101121.28;4094884;28;20129;-63
2024/01/24 04:33:24;;;;;;;6.28;1.38;;;;;;;11.75;75.67;101117.88;4095156;28;20066;-64
2024/01/24 04:35:27;;;;;;;3.65;1.15;;;;;;;11.74;75.72;101140.47;4095481;28;20035;-63
2024/01/24 04:37:32;;;;;;;3.67;1.35;;;;;;;11.79;75.72;101117.97;4097927;28;20042;-63
2024/01/24 04:39:35;;;;;;;3.67;1.13;;;;;;;11.76;75.28;101112.69;4097064;28;20070;-63
2024/01/24 04:41:38;;;;;;;3.95;1.20;;;;;;;11.70;76.09;101112.59;4097163;29;20046;-63
2024/01/24 04:43:43;;;;;;;4.70;1.38;;;;;;;11.72;75.66;101123.91;4098869;28;20063;-63
2024/01/24 04:45:46;;;;;;;3.30;1.20;;;;;;;11.77;75.53;101126.59;4096037;28;20049;-63
2024/01/24 04:47:49;;;;;;;2.75;1.08;;;;;;;11.77;75.86;101117.06;4094626;29;20105;-63
2024/01/24 04:49:52;;;;;;;4.82;1.10;;;;;;;11.68;76.04;101135.09;4093601;29;20134;-63
2024/01/24 04:51:55;;;;;;;4.05;1.98;;;;;;;11.73;75.92;101125.66;4099114;28;20043;-63
2024/01/24 04:54:00;;;;;;;4.40;1.17;;;;;;;11.78;76.01;101129.22;4098619;28;20039;-64
2024/01/24 04:56:04;;;;;;;2.80;1.52;;;;;;;11.82;75.53;101136.25;4102047;28;20045;-64
2024/01/24 04:58:06;;;;;;;2.28;1.20;;;;;;;11.78;75.62;101152.69;4098925;28;20036;-64
2024/01/24 05:00:11;;;;;;;3.97;1.10;;;;;;;11.86;75.74;101150.25;4095308;28;20039;-64
2024/01/24 05:02:15;;;;;;;4.03;1.30;;;;;;;11.80;75.69;101137.09;4096489;28;20049;-64
2024/01/24 05:04:18;;;;;;;5.53;1.73;;;;;;;11.85;75.81;101146.75;4069400;29;20526;-64
2024/01/24 05:06:21;;;;;;;8.05;1.77;;;;;;;11.85;75.80;101144.13;4097081;28;20047;-64
2024/01/24 05:08:24;;;;;;;6.63;1.70;;;;;;;11.94;75.20;101148.69;4096374;28;20034;-64
2024/01/24 05:10:30;;;;;;;4.88;1.20;;;;;;;11.87;75.66;101172.81;4095384;28;20039;-64
2024/01/24 05:12:33;;;;;;;6.20;1.20;;;;;;;11.92;75.66;101166.00;4098536;28;20039;-64
2024/01/24 05:14:35;;;;;;;9.95;1.65;;;;;;;11.98;75.01;101154.84;4101112;28;20051;-64
2024/01/24 05:16:41;;;;;;;3.60;1.27;;;;;;;12.01;75.12;101140.13;4096393;28;20035;-64
2024/01/24 05:18:44;;;;;;;5.72;1.70;;;;;;;12.11;74.83;101155.97;4098691;29;20090;-64
2024/01/24 05:20:47;;;;;;;2.53;0.95;;;;;;;12.06;75.00;101158.47;4100392;28;20059;-64
2024/01/24 05:22:50;;;;;;;6.90;0.98;;;;;;;12.04;75.15;101160.19;4099685;29;20045;-64
2024/01/24 05:24:53;;;;;;;3.70;1.02;;;;;;;12.14;74.84;101150.81;4100823;28;20063;-64
2024/01/24 05:26:57;;;;;;;2.28;1.00;;;;;;;12.21;74.44;101158.78;4098088;28;20593;-64
2024/01/24 05:28:59;;;;;;;2.75;1.20;;;;;;;12.13;74.74;101144.72;4100106;28;20411;-64
2024/01/24 05:31:02;;;;;;;3.40;1.40;;;;;;;12.17;74.94;101156.09;4099131;28;20062;-64
2024/01/24 05:33:06;;;;;;;2.95;1.45;;;;;;;12.15;74.88;101152.56;4098736;28;20055;-64
2024/01/24 05:35:08;;;;;;;3.75;1.15;;;;;;;12.15;75.12;101157.75;4099366;28;20031;-64
2024/01/24 05:37:11;;;;;;;3.20;1.15;;;;;;;12.13;74.95;101144.72;4093067;28;20051;-64
2024/01/24 05:39:15;;;;;;;2.40;1.45;;;;;;;12.19;75.07;101146.56;4098578;28;20051;-64
2024/01/24 05:41:18;;;;;;;3.63;1.13;;;;;;;12.16;75.04;101144.78;4096496;28;20105;-64
2024/01/24 05:43:23;;;;;;;2.55;1.30;;;;;;;12.13;75.41;101152.53;4096057;28;20127;-64
2024/01/24 05:45:25;;;;;;;5.20;1.20;;;;;;;12.12;75.72;101153.41;4097379;28;20040;-64
2024/01/24 05:47:27;;;;;;;5.40;1.42;;;;;;;12.04;76.00;101160.19;4099886;28;20060;-64
2024/01/24 05:49:30;;;;;;;2.15;1.00;;;;;;;11.97;76.50;101148.78;4092607;28;20564;-63
2024/01/24 05:51:34;;;;;;;7.38;2.53;;;;;;;12.13;76.31;101152.53;4110151;23;20046;-64
2024/01/24 05:53:37;;;;;;;3.08;1.10;;;;;;;12.10;76.36;101149.88;4111846;28;20489;-64
2024/01/24 05:55:40;;;;;;;3.42;1.20;;;;;;;11.99;76.96;101151.41;4115108;28;20497;-64
2024/01/24 05:57:46;;;;;;;4.93;1.23;;;;;;;11.99;76.86;101151.41;4114699;28;20045;-64
2024/01/24 05:59:50;;;;;;;3.47;1.15;;;;;;;11.87;77.01;101158.09;4114111;28;20405;-64
2024/01/24 06:01:53;;;;;;;2.50;1.00;;;;;;;12.02;76.93;101154.06;4111384;28;20109;-64
2024/01/24 06:03:56;;;;;;;3.58;1.02;;;;;;;12.01;77.26;101154.91;4113185;28;20539;-64
2024/01/24 06:05:59;;;;;;;2.83;1.23;;;;;;;11.97;77.23;101142.66;4116072;28;20497;-64
2024/01/24 06:08:03;;;;;;;5.70;1.40;;;;;;;11.92;77.52;101154.72;4112083;28;20057;-64
2024/01/24 06:10:07;;;;;;;4.67;1.00;;;;;;;11.89;77.88;101155.50;4110052;28;20094;-64
2024/01/24 06:12:10;;;;;;;3.28;1.15;;;;;;;11.86;78.30;101158.06;4115441;28;20453;-64
2024/01/24 06:14:13;;;;;;;3.15;0.90;;;;;;;11.84;78.19;101152.81;4114846;28;20501;-64
2024/01/24 06:16:18;;;;;;;2.15;0.90;;;;;;;11.74;79.29;101150.88;4110377;28;20039;-64
2024/01/24 06:18:19;;;;;;;4.60;0.80;;;;;;;11.82;78.67;101122.38;4115952;28;20460;-64
2024/01/24 06:20:22;;;;;;;3.70;0.90;;;;;;;11.92;78.66;101139.06;4111986;28;20035;-64
2024/01/24 06:22:25;;;;;;;3.67;1.08;;;;;;;11.94;78.48;101125.22;4112675;28;20039;-64
2024/01/24 06:24:28;;;;;;;6.70;1.55;;;;;;;11.93;78.35;101130.38;4115351;28;20096;-64
2024/01/24 06:26:31;;;;;;;2.25;0.82;;;;;;;11.95;78.61;101146.97;4116388;28;20049;-63
2024/01/24 06:28:34;;;;;;;6.60;1.55;;;;;;;11.87;78.87;101163.31;4114191;28;20073;-63
2024/01/24 06:30:37;;;;;;;1.42;0.80;;;;;;;11.93;78.80;101151.22;4114759;28;20046;-64
2024/01/24 06:32:42;;;;;;;2.50;1.10;;;;;;;11.94;79.14;101159.09;4114883;28;20053;-64
2024/01/24 06:34:45;;;;;;;3.72;1.05;;;;;;;11.90;79.18;101166.81;4109057;28;20133;-63
2024/01/24 06:36:49;;;;;;;3.47;0.77;;;;;;;11.90;79.92;101179.84;4115667;28;20073;-63
2024/01/24 06:38:51;;;;;;;3.72;1.05;;;;;;;11.94;79.23;101173.88;4112796;28;20493;-63
2024/01/24 06:40:54;;;;;;;1.70;0.70;;;;;;;11.94;79.69;101155.63;4116951;28;20054;-64
2024/01/24 06:42:56;;;;;;;3.67;0.88;;;;;;;11.93;79.63;101156.44;4109211;28;20413;-64
2024/01/24 06:44:59;;;;;;;2.90;1.08;;;;;;;11.82;80.30;101138.00;4115364;28;20535;-64
2024/01/24 06:47:02;;;;;;;2.25;0.93;;;;;;;11.82;80.12;101141.47;4106877;28;20497;-64
2024/01/24 06:49:06;;;;;;;0.65;0.52;;;;;;;11.89;80.25;101145.09;4115050;28;20653;-63
2024/01/24 06:51:12;;;;;;;3.28;0.73;;;;;;;11.85;80.49;101136.31;4115142;28;20386;-63
2024/01/24 06:53:15;;;;;;;3.63;1.00;;;;;;;11.86;80.92;101130.28;4114641;28;20535;-63
2024/01/24 06:55:17;;;;;;;1.63;0.85;;;;;;;11.88;80.66;101127.69;4111042;28;20633;-63
2024/01/24 06:57:20;;;;;;;1.58;0.75;;;;;;;11.92;80.87;101133.84;4112396;28;20045;-63
2024/01/24 06:59:23;;;;;;;1.23;0.60;;;;;;;11.97;81.04;101119.22;4112684;28;20055;-64
2024/01/24 07:01:27;;;;;;;2.55;0.68;;;;;;;12.00;80.70;101129.69;4110562;28;20046;-63
2024/01/24 07:03:30;;;;;;;3.35;0.68;;;;;;;11.91;81.15;101139.91;4106516;28;20513;-63
2024/01/24 07:05:34;;;;;;;2.03;0.60;;;;;;;11.86;81.35;101145.03;4107766;28;20043;-64
2024/01/24 07:07:37;;;;;;;1.17;0.70;;;;;;;11.88;81.32;101131.19;4110801;28;20046;-63
2024/01/24 07:09:40;;;;;;;2.88;0.73;;;;;;;11.80;82.00;101135.38;4104010;28;20332;-63
2024/01/24 07:11:42;;;;;;;1.38;0.80;;;;;;;11.85;81.91;101175.41;4115143;28;20049;-63
2024/01/24 07:13:45;;;;;;;1.50;0.70;;;;;;;11.92;81.83;101154.72;4115730;28;20043;-63
2024/01/24 07:15:47;;;;;;;1.00;0.68;;;;;;;11.83;82.61;101181.44;4108098;28;20141;-63
2024/01/24 07:17:51;;;;;;;2.60;0.70;;;;;;;11.82;82.67;101183.16;4117446;28;20044;-63
2024/01/24 07:19:54;;;;;;;0.93;0.60;;;;;;;11.83;82.77;101182.31;4119472;28;20038;-63
2024/01/24 07:21:58;;;;;;;3.95;0.50;;;;;;;11.91;82.39;101174.66;4109157;28;20131;-64
2024/01/24 07:24:05;;;;;;;1.15;0.95;;;;;;;11.88;82.61;101185.91;4115898;28;20043;-63
2024/01/24 07:26:08;;;;;;;1.38;0.70;;;;;;;11.83;83.21;101191.88;4098608;29;20071;-63
2024/01/24 07:28:11;;;;;;;2.63;1.27;;;;;;;11.80;83.36;101190.06;4112611;28;20134;-63
2024/01/24 07:30:15;;;;;;;0.88;0.50;;;;;;;11.91;82.72;101185.06;4109518;28;20071;-63
2024/01/24 07:32:18;;;;;;;3.92;0.70;;;;;;;11.87;83.29;101191.06;4108129;28;20556;-63
2024/01/24 07:34:24;;;;;;;0.40;0.40;;;;;;;11.82;83.71;101211.81;4100919;28;20047;-63
2024/01/24 07:36:27;;;;;;;0.47;0.47;;;;;;;11.79;84.34;101214.34;4107899;28;20054;-63
2024/01/24 07:38:32;;;;;;;1.00;0.60;;;;;;;11.81;84.06;101197.06;4110017;28;20105;-63
2024/01/24 07:40:37;;;;;;;1.98;0.73;;;;;;;11.94;83.33;101190.38;4110854;28;20049;-64
2024/01/24 07:42:40;;;;;;;1.15;0.50;;;;;;;11.87;83.84;101198.88;4112244;28;20031;-64
2024/01/24 07:44:43;;;;;;;0.88;0.70;;;;;;;11.80;84.27;101189.22;4107648;28;20469;-64
2024/01/24 07:46:46;;;;;;;3.17;0.88;;;;;;;11.85;84.40;101190.16;4111104;28;20070;-64
2024/01/24 07:48:49;;;;;;;1.55;0.82;;;;;;;11.87;84.06;101191.06;4111736;28;20086;-64
2024/01/24 07:50:53;;;;;;;1.27;0.47;;;;;;;11.78;84.38;101196.97;4109263;28;20044;-64
2024/01/24 07:52:56;;;;;;;0.98;0.60;;;;;;;11.84;83.99;101222.28;4110224;28;20098;-64
2024/01/24 07:55:01;;;;;;;0.47;0.40;;;;;;;11.85;84.60;101227.50;4108725;28;20062;-64
2024/01/24 07:57:04;;;;;;;;;;;;;;;11.70;85.13;101216.78;4109336;28;20078;-64
2024/01/24 07:59:08;;;;;;;1.60;0.60;;;;;;;11.81;84.99;101220.50;4111120;28;20312;-63
2024/01/24 08:01:12;;;;;;;0.57;0.45;;;;;;;11.91;84.25;101225.91;4108361;28;20031;-63
2024/01/24 08:03:16;;;;;;;0.80;0.47;;;;;;;11.89;84.33;101207.63;4107223;28;20082;-63
2024/01/24 08:05:19;;;;;;;1.05;0.55;;;;;;;11.92;84.17;101209.41;4107988;28;20047;-63
2024/01/24 08:07:23;;;;;;;0.68;0.60;;;;;;;11.93;84.42;101222.50;4109526;28;20382;-63
2024/01/24 08:09:26;;;;;;;2.78;0.80;;;;;;;11.82;85.06;101219.63;4111656;28;20130;-63
2024/01/24 08:11:30;;;;;;;3.28;0.90;;;;;;;11.92;84.85;101219.84;4110545;28;20043;-63
2024/01/24 08:13:34;;;;;;;0.77;0.68;;;;;;;11.80;85.07;101221.34;4113031;28;20034;-63
2024/01/24 08:15:37;;;;;;;0.93;0.52;;;;;;;11.80;85.88;101191.81;4108271;28;20468;-64
2024/01/24 08:17:40;;;;;;;2.22;0.77;;;;;;;11.83;85.59;101195.34;4110691;28;20062;-64
2024/01/24 08:19:44;;;;;;;1.25;0.43;;;;;;;11.86;85.33;101215.38;4110106;28;20130;-64
2024/01/24 08:21:47;;;;;;;1.58;0.57;;;;;;;11.81;85.38;101210.09;4111070;28;20133;-64
2024/01/24 08:23:50;;;;;;;3.80;0.57;;;;;;;11.82;85.36;101217.03;4111771;28;20039;-64
2024/01/24 08:25:53;;;;;;;0.70;0.50;;;;;;;11.84;85.60;101233.59;4111856;28;20065;-64
2024/01/24 08:27:58;;;;;;;2.65;0.73;;;;;;;11.89;85.63;101233.69;4110231;28;20592;-63
2024/01/24 08:30:00;;;;;;;1.52;0.80;;;;;;;11.97;85.59;101226.06;4107613;28;20039;-63
2024/01/24 08:32:04;;;;;;;0.60;0.60;;;;;;;11.87;85.38;101246.69;4110072;28;20058;-63
2024/01/24 08:34:08;;;;;;;1.13;0.60;;;;;;;11.86;85.88;101257.94;4103977;28;20440;-63
2024/01/24 08:36:11;;;;;;;1.67;0.82;;;;;;;11.82;86.19;101261.31;4111519;28;20043;-63
2024/01/24 08:38:14;;;;;;;4.72;0.57;;;;;;;11.79;86.66;101276.88;4110712;28;20046;-63
2024/01/24 08:40:18;;;;;;;1.40;0.60;;;;;;;11.88;86.35;101264.06;4111190;28;20227;-63
2024/01/24 08:42:21;;;;;;;0.85;0.60;;;;;;;11.89;86.26;101280.56;4108733;28;20031;-63
2024/01/24 08:44:26;;;;;;;2.67;0.68;;;;;;;11.86;85.98;101280.50;4110536;28;20094;-63
2024/01/24 08:46:29;;;;;;;1.13;0.43;;;;;;;11.96;85.66;101287.72;4110538;28;20070;-64
2024/01/24 08:48:32;;;;;;;0.77;0.60;;;;;;;12.02;85.25;101297.41;4107137;28;20048;-64
2024/01/24 08:50:35;;;;;;;1.90;0.80;;;;;;;12.11;84.72;101297.59;4109257;28;20050;-64
2024/01/24 08:52:37;;;;;;;3.65;0.70;;;;;;;12.11;84.64;101302.81;4113209;28;20051;-64
2024/01/24 08:54:43;;;;;;;4.68;1.05;;;;;;;12.18;84.67;101298.63;4108917;28;20112;-65
2024/01/24 08:56:47;;;;;;;3.05;0.70;;;;;;;12.17;84.29;101307.28;4115840;28;20035;-63
2024/01/24 08:58:52;;;;;;;2.50;0.98;;;;;;;12.23;84.26;101303.03;4114382;28;20039;-63
2024/01/24 09:00:56;;;;;;;2.33;0.65;;;;;;;12.29;84.00;101309.25;4111602;28;20077;-64
2024/01/24 09:02:59;;;;;;;1.25;0.50;;;;;;;12.39;84.16;101312.06;4113584;28;20077;-64
2024/01/24 09:05:01;;;;;;;1.10;0.75;;;;;;;12.26;84.54;101302.25;4108099;28;20039;-64
2024/01/24 09:07:04;;;;;;;1.98;0.73;;;;;;;12.23;84.81;101317.81;4114709;28;20054;-64
2024/01/24 09:09:07;;;;;;;2.60;0.55;;;;;;;12.22;84.99;101313.44;4109880;28;20039;-64
2024/01/24 09:11:11;;;;;;;1.42;0.63;;;;;;;12.23;85.18;101321.28;4115459;28;20046;-65
2024/01/24 09:13:19;;;;;;;1.85;0.70;;;;;;;12.27;85.26;101309.22;4112666;28;20039;-64
2024/01/24 09:15:22;;;;;;;0.38;0.38;;;;;;;12.32;85.09;101302.34;4110547;28;20049;-64
2024/01/24 09:17:27;;;;;;;1.83;0.60;;;;;;;12.37;85.03;101310.31;4115311;28;20045;-64
2024/01/24 09:19:30;;;;;;;2.25;0.65;;;;;;;12.34;84.95;101308.50;4110740;28;20101;-64
2024/01/24 09:21:33;;;;;;;2.13;0.70;;;;;;;12.34;84.90;101310.25;4113105;28;20073;-64
2024/01/24 09:23:36;;;;;;;1.58;0.70;;;;;;;12.42;84.34;101319.09;4110148;28;20038;-64
2024/01/24 09:25:38;;;;;;;5.53;1.00;;;;;;;12.35;83.99;101330.22;4102364;28;20100;-64
2024/01/24 09:27:41;;;;;;;3.38;1.20;;;;;;;12.40;83.09;101326.88;4106942;28;20039;-64
2024/01/24 09:29:44;;;;;;;3.70;0.90;;;;;;;12.49;82.65;101335.75;4116625;28;20541;-64
2024/01/24 09:31:48;;;;;;;1.38;0.57;;;;;;;12.60;81.75;101317.69;4109532;28;20043;-64
2024/01/24 09:33:52;;;;;;;1.23;0.68;;;;;;;12.63;79.86;101329.09;4108257;28;20043;-64
2024/01/24 09:35:55;;;;;;;2.45;0.60;;;;;;;12.74;77.76;101318.84;4110023;28;20067;-64